Time;durP1;ratioP1;P1;durP2;ratioP2;P2;SDS_P1;SDS_P2;PMS_P1;PMS_P2;Temp;Humidity;BMP_temperature;BMP_pressure;BME280_temperature;BME280_humidity;BME280_pressure;Samples;Min_cycle;Max_cycle;Signal;HPM_P1;HPM_P2
2022/09/21 00:00:36;;;;;;;6.10;4.07;;;;;;;11.59;58.74;98226.25;5040220;28;20208;-70
2022/09/21 00:03:01;;;;;;;6.10;3.87;;;;;;;11.60;58.33;98229.69;5042197;28;20608;-70
2022/09/21 00:05:27;;;;;;;7.60;4.10;;;;;;;11.60;58.38;98232.31;5037762;28;20457;-71
2022/09/21 00:07:53;;;;;;;6.13;3.60;;;;;;;11.57;58.74;98232.59;5049084;28;20187;-72
2022/09/21 00:10:19;;;;;;;6.40;4.00;;;;;;;11.58;58.44;98231.63;5039429;28;20487;-72
2022/09/21 00:12:47;;;;;;;5.00;3.90;;;;;;;11.41;58.85;98233.91;5039372;28;20178;-71
2022/09/21 00:15:12;;;;;;;5.30;3.70;;;;;;;11.41;58.75;98231.28;5040511;28;20514;-72
2022/09/21 00:17:38;;;;;;;7.60;4.10;;;;;;;11.40;58.54;98234.88;5043692;28;20516;-72
2022/09/21 00:20:04;;;;;;;4.77;3.90;;;;;;;11.38;58.42;98242.03;5049392;28;20206;-70
2022/09/21 00:22:31;;;;;;;6.23;3.93;;;;;;;11.37;58.41;98241.22;5026403;28;20238;-71
2022/09/21 00:24:56;;;;;;;5.50;4.07;;;;;;;11.33;58.50;98245.06;5030550;28;20893;-72
2022/09/21 00:27:28;;;;;;;7.33;4.27;;;;;;;11.42;58.51;98242.59;5034799;28;20430;-72
2022/09/21 00:29:59;;;;;;;5.60;3.67;;;;;;;11.48;58.05;98237.66;5048717;28;20270;-71
2022/09/21 00:32:25;;;;;;;7.17;4.13;;;;;;;11.46;58.44;98233.50;5037599;28;20445;-72
2022/09/21 00:34:51;;;;;;;8.23;3.80;;;;;;;11.38;58.50;98236.78;5043244;28;20452;-71
2022/09/21 00:37:17;;;;;;;8.57;3.90;;;;;;;11.34;58.38;98240.66;5033087;28;20176;-71
2022/09/21 00:39:43;;;;;;;4.30;3.53;;;;;;;11.31;58.74;98241.75;5031065;28;20430;-71
2022/09/21 00:42:09;;;;;;;5.77;4.10;;;;;;;11.34;58.21;98228.38;5041891;28;20444;-72
2022/09/21 00:44:35;;;;;;;8.80;3.77;;;;;;;11.21;58.62;98235.63;5040247;28;20192;-71
2022/09/21 00:47:07;;;;;;;7.03;3.30;;;;;;;11.13;58.94;98231.03;5041949;28;20487;-72
2022/09/21 00:49:33;;;;;;;3.83;3.10;;;;;;;11.16;58.71;98232.56;5045270;28;20564;-71
2022/09/21 00:52:01;;;;;;;4.40;3.50;;;;;;;11.02;58.64;98228.50;5046228;28;20441;-71
2022/09/21 00:54:29;;;;;;;4.97;3.63;;;;;;;11.02;58.80;98231.09;5035908;28;20559;-72
2022/09/21 00:56:55;;;;;;;5.83;4.00;;;;;;;11.11;58.65;98230.31;5018491;28;20431;-71
2022/09/21 00:59:21;;;;;;;5.43;3.27;;;;;;;11.06;58.73;98232.53;5047586;28;20440;-71
2022/09/21 01:01:47;;;;;;;5.70;3.50;;;;;;;10.99;58.84;98226.13;5041557;28;20469;-72
2022/09/21 01:04:13;;;;;;;5.20;3.50;;;;;;;10.98;58.65;98232.31;5044547;28;20419;-71
2022/09/21 01:06:40;;;;;;;5.23;3.47;;;;;;;11.05;58.53;98223.00;5040916;28;20184;-71
2022/09/21 01:09:05;;;;;;;4.40;3.53;;;;;;;11.07;58.48;98234.19;5030597;28;20797;-71
2022/09/21 01:11:46;;;;;;;7.37;3.20;;;;;;;10.95;58.85;98224.72;5047940;28;20464;-71
2022/09/21 01:14:34;;;;;;;3.63;3.13;;;;;;;10.97;58.72;98228.03;5040663;28;20699;-71
2022/09/21 01:17:18;;;;;;;12.23;3.90;;;;;;;11.01;58.52;98232.91;5041962;28;20454;-72
2022/09/21 01:20:14;;;;;;;7.00;3.40;;;;;;;10.93;58.57;98226.66;5027648;28;20450;-71
2022/09/21 01:22:55;;;;;;;5.67;3.47;;;;;;;10.87;58.35;98228.81;5024908;28;20433;-72
2022/09/21 01:25:23;;;;;;;4.93;3.50;;;;;;;10.80;58.80;98226.84;5042382;28;20774;-72
2022/09/21 01:28:15;;;;;;;4.77;2.90;;;;;;;10.81;58.43;98231.97;5048150;28;20433;-72
2022/09/21 01:30:42;;;;;;;5.07;3.20;;;;;;;10.80;58.50;98227.69;5038645;28;20981;-72
2022/09/21 01:33:14;;;;;;;5.37;3.13;;;;;;;10.79;58.55;98228.63;5035069;28;20794;-72
2022/09/21 01:35:45;;;;;;;5.40;3.20;;;;;;;10.74;58.26;98229.03;5038405;28;20997;-72
2022/09/21 01:38:32;;;;;;;4.37;3.00;;;;;;;10.75;58.41;98237.72;5013485;28;20429;-72
2022/09/21 01:41:02;;;;;;;7.33;3.80;;;;;;;10.73;58.51;98242.25;5035892;28;20470;-71
2022/09/21 01:43:32;;;;;;;5.93;3.40;;;;;;;10.65;58.66;98239.44;5042258;28;20524;-70
2022/09/21 01:46:00;;;;;;;4.73;3.67;;;;;;;10.67;58.88;98232.28;5045963;28;20457;-70
2022/09/21 01:48:30;;;;;;;4.03;3.40;;;;;;;10.64;58.80;98235.16;5043430;28;20418;-72
2022/09/21 01:50:56;;;;;;;7.37;3.13;;;;;;;10.68;58.52;98241.81;5046636;28;20497;-70
2022/09/21 01:53:35;;;;;;;3.80;2.90;;;;;;;10.64;58.81;98243.03;5044301;28;20458;-71
2022/09/21 01:56:05;;;;;;;4.47;2.87;;;;;;;10.64;58.81;98243.88;5047914;28;20425;-72
2022/09/21 01:58:35;;;;;;;4.10;3.57;;;;;;;10.62;58.31;98239.69;5029981;28;20436;-71
2022/09/21 02:01:01;;;;;;;5.57;3.10;;;;;;;10.56;58.67;98247.13;5042150;28;20476;-72
2022/09/21 02:03:27;;;;;;;4.20;3.13;;;;;;;10.55;58.38;98240.22;5046074;28;20775;-71
2022/09/21 02:05:53;;;;;;;3.70;3.40;;;;;;;10.60;58.49;98243.28;5041862;28;20436;-70
2022/09/21 02:08:18;;;;;;;4.80;2.87;;;;;;;10.60;58.56;98243.28;5041423;28;20183;-71
2022/09/21 02:10:47;;;;;;;7.40;3.40;;;;;;;10.49;58.82;98240.72;5034787;28;20771;-72
2022/09/21 02:13:15;;;;;;;6.63;3.37;;;;;;;10.51;58.83;98238.78;5035954;28;20427;-71
2022/09/21 02:15:51;;;;;;;5.13;3.20;;;;;;;10.52;58.74;98240.47;5043020;28;20428;-71
2022/09/21 02:18:35;;;;;;;3.73;3.13;;;;;;;10.43;58.84;98236.81;5040998;28;20428;-72
2022/09/21 02:21:02;;;;;;;4.53;3.23;;;;;;;10.44;58.74;98235.03;5046191;28;21004;-72
2022/09/21 02:23:32;;;;;;;4.27;3.30;;;;;;;10.42;58.60;98229.06;5042927;28;20891;-71
2022/09/21 02:26:03;;;;;;;4.03;3.07;;;;;;;10.35;58.81;98233.09;5046416;28;20429;-70
2022/09/21 02:28:53;;;;;;;6.97;3.43;;;;;;;10.39;58.58;98224.94;5041080;28;20498;-70
2022/09/21 02:31:33;;;;;;;5.33;3.13;;;;;;;10.37;58.48;98225.97;5038602;28;20472;-70
2022/09/21 02:34:19;;;;;;;4.10;2.80;;;;;;;10.29;58.34;98224.81;5047457;28;20425;-72
2022/09/21 02:36:57;;;;;;;4.43;3.27;;;;;;;10.30;58.60;98221.25;5012367;28;20961;-71
2022/09/21 02:39:35;;;;;;;8.20;3.63;;;;;;;10.30;58.03;98223.84;5027088;28;20908;-70
2022/09/21 02:42:11;;;;;;;3.63;3.30;;;;;;;10.30;58.41;98223.00;5023840;28;20483;-71
2022/09/21 02:44:39;;;;;;;8.33;3.40;;;;;;;10.25;58.37;98228.63;5018803;28;20452;-71
2022/09/21 02:47:24;;;;;;;5.10;2.97;;;;;;;10.20;58.57;98225.56;5045978;28;20925;-69
2022/09/21 02:49:53;;;;;;;3.80;2.70;;;;;;;10.20;58.53;98230.81;5043186;28;20475;-71
2022/09/21 02:52:20;;;;;;;6.53;3.70;;;;;;;10.13;58.38;98225.25;5045401;28;20465;-70
2022/09/21 02:54:49;;;;;;;4.87;3.30;;;;;;;10.13;58.43;98233.09;5041625;28;20471;-72
2022/09/21 02:57:17;;;;;;;3.70;3.40;;;;;;;10.14;58.65;98232.09;5044034;28;20426;-71
2022/09/21 02:59:42;;;;;;;3.80;3.40;;;;;;;10.19;58.39;98225.69;5038115;28;20426;-71
2022/09/21 03:02:11;;;;;;;4.30;3.30;;;;;;;10.14;58.32;98221.63;5045641;28;20469;-72
2022/09/21 03:04:40;;;;;;;4.03;3.10;;;;;;;10.13;58.68;98227.84;5036562;28;20247;-71
2022/09/21 03:07:06;;;;;;;4.50;3.20;;;;;;;10.11;58.81;98228.91;5038866;28;20985;-70
2022/09/21 03:09:31;;;;;;;6.47;3.57;;;;;;;10.06;58.65;98229.28;5037184;28;20426;-71
2022/09/21 03:11:57;;;;;;;4.70;3.77;;;;;;;9.99;58.27;98223.72;5038549;28;20456;-71
2022/09/21 03:14:22;;;;;;;5.03;3.60;;;;;;;9.97;58.60;98230.84;5036982;28;20318;-70
2022/09/21 03:16:47;;;;;;;4.40;3.70;;;;;;;9.94;58.48;98228.50;5034191;28;20190;-71
2022/09/21 03:19:14;;;;;;;5.93;3.90;;;;;;;10.03;58.74;98226.91;5050069;28;20198;-72
2022/09/21 03:21:40;;;;;;;5.43;3.67;;;;;;;10.01;59.12;98234.09;5038074;28;20264;-71
2022/09/21 03:24:05;;;;;;;10.17;3.73;;;;;;;10.05;59.34;98237.28;5049817;28;20429;-71
2022/09/21 03:26:31;;;;;;;4.40;3.53;;;;;;;10.10;58.92;98241.19;5039919;28;20604;-71
2022/09/21 03:28:57;;;;;;;3.80;3.13;;;;;;;10.09;59.29;98243.91;5036539;28;20188;-71
2022/09/21 03:31:22;;;;;;;2.97;2.77;;;;;;;10.09;59.14;98238.69;5032663;28;20884;-71
2022/09/21 03:33:48;;;;;;;3.20;2.87;;;;;;;9.93;58.74;98237.31;5028570;28;20266;-72
2022/09/21 03:36:13;;;;;;;3.83;3.10;;;;;;;9.86;59.30;98243.97;5019441;28;20195;-70
2022/09/21 03:38:39;;;;;;;6.00;3.17;;;;;;;9.80;59.71;98244.50;5040362;28;20660;-70
2022/09/21 03:41:05;;;;;;;4.57;3.50;;;;;;;9.86;59.46;98243.97;5041219;28;20218;-71
2022/09/21 03:43:30;;;;;;;4.33;3.80;;;;;;;9.86;59.15;98249.22;5037528;28;20266;-71
2022/09/21 03:45:56;;;;;;;3.93;3.03;;;;;;;9.80;59.51;98244.50;5046565;28;20184;-71
2022/09/21 03:48:22;;;;;;;5.00;3.13;;;;;;;9.79;59.72;98248.06;5044211;28;20270;-71
2022/09/21 03:50:48;;;;;;;10.10;4.00;;;;;;;9.86;59.96;98243.97;5042303;28;20450;-71
2022/09/21 03:53:13;;;;;;;8.43;3.73;;;;;;;9.88;60.00;98246.50;5043646;28;20188;-72
2022/09/21 03:55:39;;;;;;;10.40;5.00;;;;;;;9.92;59.94;98242.66;5045204;28;20571;-70
2022/09/21 03:58:04;;;;;;;5.03;4.03;;;;;;;9.97;59.54;98246.56;5036105;28;20184;-71
2022/09/21 04:00:30;;;;;;;7.40;4.80;;;;;;;9.94;60.29;98241.59;5044964;28;20215;-71
2022/09/21 04:02:55;;;;;;;9.93;6.93;;;;;;;9.83;59.92;98244.22;5048147;28;20191;-71
2022/09/21 04:05:21;;;;;;;10.43;7.10;;;;;;;9.87;59.70;98244.84;5037158;28;20725;-71
2022/09/21 04:07:47;;;;;;;10.10;7.00;;;;;;;9.89;59.32;98248.97;5045178;28;20609;-73
2022/09/21 04:10:14;;;;;;;7.10;5.60;;;;;;;9.91;59.26;98247.06;5040468;28;20203;-72
2022/09/21 04:12:42;;;;;;;7.93;5.10;;;;;;;9.95;59.24;98239.81;5029274;28;20789;-71
2022/09/21 04:15:11;;;;;;;6.20;5.10;;;;;;;9.80;59.66;98245.31;5041391;28;20801;-72
2022/09/21 04:17:37;;;;;;;6.60;4.83;;;;;;;9.70;59.86;98247.00;5044734;28;20453;-72
2022/09/21 04:20:03;;;;;;;10.10;4.33;;;;;;;9.68;59.67;98246.28;5039828;28;20866;-70
2022/09/21 04:22:30;;;;;;;7.67;5.90;;;;;;;9.65;59.88;98252.59;5038143;28;20200;-71
2022/09/21 04:24:55;;;;;;;10.03;5.50;;;;;;;9.73;60.13;98259.00;5044775;28;20440;-71
2022/09/21 04:27:21;;;;;;;7.10;5.47;;;;;;;9.72;60.25;98252.94;5035746;28;20424;-71
2022/09/21 04:29:47;;;;;;;6.20;4.90;;;;;;;9.64;60.59;98256.16;5015420;28;20191;-71
2022/09/21 04:32:13;;;;;;;6.20;4.20;;;;;;;9.66;60.00;98258.66;5018386;28;20208;-71
2022/09/21 04:34:38;;;;;;;6.03;4.73;;;;;;;9.66;59.40;98263.88;5018484;28;21010;-72
2022/09/21 04:37:07;;;;;;;8.53;4.87;;;;;;;9.47;59.98;98269.72;5013827;28;20723;-71
2022/09/21 04:39:33;;;;;;;9.33;4.37;;;;;;;9.46;59.95;98262.81;5016227;28;20200;-73
2022/09/21 04:41:59;;;;;;;5.70;4.27;;;;;;;9.51;59.83;98268.53;5000820;28;20466;-71
2022/09/21 04:44:24;;;;;;;19.80;14.60;;;;;;;9.44;59.58;98265.56;5029491;28;21016;-72
2022/09/21 04:46:49;;;;;;;10.57;8.60;;;;;;;9.47;60.33;98273.19;5032373;28;20593;-72
2022/09/21 04:49:15;;;;;;;6.30;5.60;;;;;;;9.41;60.41;98276.25;5033141;28;20261;-71
2022/09/21 04:51:41;;;;;;;7.77;6.00;;;;;;;9.56;60.47;98269.03;5023065;28;20283;-72
2022/09/21 04:54:06;;;;;;;10.00;6.60;;;;;;;9.63;59.91;98270.19;5018134;28;20714;-71
2022/09/21 04:56:32;;;;;;;13.60;6.50;;;;;;;9.59;59.80;98274.00;5020895;28;20270;-72
2022/09/21 04:58:57;;;;;;;7.40;5.87;;;;;;;9.63;59.64;98272.81;5042127;28;20620;-72
2022/09/21 05:01:23;;;;;;;6.70;5.70;;;;;;;9.62;59.67;98283.41;5022738;28;20212;-71
2022/09/21 05:03:48;;;;;;;6.80;5.63;;;;;;;9.64;59.32;98284.97;5039404;28;20179;-71
2022/09/21 05:06:14;;;;;;;8.23;6.13;;;;;;;9.63;59.32;98288.53;5023291;28;20314;-70
2022/09/21 05:11:23;;;;;;;7.00;4.93;;;;;;;9.52;59.21;98293.75;5025793;28;20204;-70
2022/09/21 05:13:49;;;;;;;7.90;5.87;;;;;;;9.51;59.11;98292.09;5028698;28;20448;-71
2022/09/21 05:16:15;;;;;;;9.87;6.33;;;;;;;9.43;59.66;98294.47;5029887;28;20187;-70
2022/09/21 05:18:41;;;;;;;6.73;5.87;;;;;;;9.46;60.09;98289.84;5030592;28;20206;-71
2022/09/21 05:21:06;;;;;;;8.63;6.00;;;;;;;9.50;60.11;98293.91;5029843;28;20466;-70
2022/09/21 05:23:32;;;;;;;8.93;6.67;;;;;;;9.52;59.46;98291.16;5028653;28;20727;-71
2022/09/21 05:25:58;;;;;;;10.20;6.10;;;;;;;9.50;59.75;98293.03;5032233;28;20222;-71
2022/09/21 05:28:24;;;;;;;9.80;7.33;;;;;;;9.49;59.73;98288.75;5024620;28;20187;-71
2022/09/21 05:31:33;;;;;;;21.57;7.93;;;;;;;9.48;59.91;98292.31;5026241;28;20462;-70
2022/09/21 05:34:11;;;;;;;10.20;6.73;;;;;;;9.57;59.93;98291.63;5024372;28;20439;-70
2022/09/21 05:36:55;;;;;;;14.10;8.40;;;;;;;9.74;59.69;98286.84;5024323;28;20525;-71
2022/09/21 05:39:20;;;;;;;15.80;8.07;;;;;;;9.97;59.23;98285.84;5027775;28;20945;-71
2022/09/21 05:41:46;;;;;;;15.63;8.90;;;;;;;10.14;58.57;98288.94;5026942;28;20522;-72
2022/09/21 05:44:13;;;;;;;11.63;7.93;;;;;;;10.35;58.34;98290.75;5027748;28;21768;-70
2022/09/21 05:46:43;;;;;;;9.27;7.80;;;;;;;10.55;58.22;98281.31;5024836;28;20191;-72
2022/09/21 05:49:16;;;;;;;12.93;7.77;;;;;;;10.60;57.83;98282.59;5018253;28;20431;-72
2022/09/21 05:51:56;;;;;;;10.80;7.97;;;;;;;10.58;58.38;98291.56;5016942;28;20930;-72
2022/09/21 05:55:00;;;;;;;11.67;7.50;;;;;;;10.66;58.38;98290.91;5024823;28;20415;-71
2022/09/21 05:57:37;;;;;;;8.23;7.10;;;;;;;10.67;58.30;98292.59;5037135;28;20443;-72
2022/09/21 06:00:09;;;;;;;9.97;7.53;;;;;;;10.60;58.79;98295.69;5023673;28;20951;-72
2022/09/21 06:02:56;;;;;;;8.40;7.37;;;;;;;10.66;58.92;98293.53;5026774;28;21020;-72
2022/09/21 06:05:22;;;;;;;10.50;8.10;;;;;;;10.75;59.08;98295.41;5033481;28;20422;-73
2022/09/21 06:07:48;;;;;;;12.33;8.20;;;;;;;10.85;59.29;98293.69;5035361;28;20417;-72
2022/09/21 06:10:14;;;;;;;9.73;7.70;;;;;;;10.88;59.68;98298.69;5037274;28;20818;-72
2022/09/21 06:12:40;;;;;;;10.13;7.80;;;;;;;10.98;59.17;98300.53;5022033;28;20228;-72
2022/09/21 06:15:07;;;;;;;10.50;7.17;;;;;;;11.06;58.94;98306.78;5026593;28;20466;-73
2022/09/21 06:17:33;;;;;;;10.80;8.30;;;;;;;11.10;58.97;98309.16;5022684;28;20178;-72
2022/09/21 06:19:58;;;;;;;14.50;7.87;;;;;;;11.22;58.48;98308.97;5032908;28;20428;-72
2022/09/21 06:22:24;;;;;;;11.50;8.33;;;;;;;11.27;58.96;98302.50;5019633;28;20975;-72
2022/09/21 06:24:49;;;;;;;13.30;7.63;;;;;;;11.37;59.01;98303.38;5034079;28;20274;-72
2022/09/21 06:27:15;;;;;;;14.90;8.50;;;;;;;11.43;59.15;98304.66;5029655;28;20179;-72
2022/09/21 06:29:40;;;;;;;14.37;7.73;;;;;;;11.49;59.38;98302.31;5027952;28;20312;-71
2022/09/21 06:32:05;;;;;;;15.73;9.13;;;;;;;11.64;59.23;98305.44;5038185;28;20194;-71
2022/09/21 06:34:31;;;;;;;12.17;9.60;;;;;;;11.77;59.22;98310.47;5047087;28;20175;-71
2022/09/21 06:36:56;;;;;;;12.07;8.77;;;;;;;11.88;58.63;98306.91;5032245;28;20203;-71
2022/09/21 06:39:22;;;;;;;19.53;9.30;;;;;;;11.93;58.76;98303.88;5039820;28;20720;-72
2022/09/21 06:41:47;;;;;;;12.93;8.83;;;;;;;12.07;58.64;98306.16;5036679;28;20303;-71
2022/09/21 06:44:13;;;;;;;15.70;9.37;;;;;;;12.19;58.82;98308.69;5019836;28;20188;-73
2022/09/21 06:46:38;;;;;;;9.50;8.50;;;;;;;12.33;58.31;98310.91;5025199;28;20276;-72
2022/09/21 06:49:04;;;;;;;14.20;9.93;;;;;;;12.50;58.61;98316.44;5011179;28;20668;-74
2022/09/21 06:51:29;;;;;;;13.97;9.20;;;;;;;12.69;58.90;98307.72;5014954;28;20279;-71
2022/09/21 06:53:56;;;;;;;16.53;9.37;;;;;;;12.86;58.49;98311.47;5025719;28;20187;-71
2022/09/21 06:56:22;;;;;;;11.20;8.40;;;;;;;12.97;57.75;98313.97;5022881;28;20232;-72
2022/09/21 06:58:47;;;;;;;17.57;9.50;;;;;;;13.10;57.46;98318.91;5023122;28;20446;-72
2022/09/21 07:01:14;;;;;;;14.60;9.60;;;;;;;13.24;57.43;98317.63;5027394;28;20216;-72
2022/09/21 07:03:40;;;;;;;15.17;10.20;;;;;;;13.34;56.97;98321.09;5032523;28;20293;-73
2022/09/21 07:06:07;;;;;;;13.73;9.00;;;;;;;13.35;56.20;98306.13;5027406;28;20797;-72
2022/09/21 07:08:32;;;;;;;12.07;8.80;;;;;;;13.47;56.86;98309.44;5033741;28;20933;-70
2022/09/21 07:10:58;;;;;;;12.70;10.03;;;;;;;13.65;57.30;98304.25;5023515;28;20511;-71
2022/09/21 07:13:25;;;;;;;15.30;8.73;;;;;;;13.75;56.32;98312.09;5019264;28;20206;-70
2022/09/21 07:15:50;;;;;;;11.83;8.50;;;;;;;13.82;55.79;98302.66;5030341;28;20439;-72
2022/09/21 07:18:16;;;;;;;9.33;8.40;;;;;;;13.98;55.78;98304.63;5022400;28;20425;-71
2022/09/21 07:20:41;;;;;;;15.10;8.10;;;;;;;14.15;55.43;98302.19;5039198;28;20691;-71
2022/09/21 07:23:14;;;;;;;12.33;7.70;;;;;;;14.25;54.82;98306.41;5029605;28;20188;-71
2022/09/21 07:25:44;;;;;;;10.50;6.47;;;;;;;14.42;54.62;98309.22;5031601;28;20677;-72
2022/09/21 07:28:10;;;;;;;10.50;6.97;;;;;;;14.45;53.48;98303.66;5025258;28;20459;-71
2022/09/21 07:30:37;;;;;;;8.93;6.10;;;;;;;14.51;53.27;98303.03;5022705;28;22203;-71
2022/09/21 07:33:03;;;;;;;9.03;6.40;;;;;;;14.57;53.56;98307.72;5034748;28;20952;-73
2022/09/21 07:35:28;;;;;;;10.70;6.10;;;;;;;14.72;53.32;98304.59;5033649;28;20462;-70
2022/09/21 07:37:57;;;;;;;10.50;6.27;;;;;;;14.82;53.40;98310.59;5039053;28;20191;-71
2022/09/21 07:40:22;;;;;;;6.87;6.10;;;;;;;14.92;53.60;98312.31;5032992;28;20698;-71
2022/09/21 07:42:48;;;;;;;11.50;6.97;;;;;;;14.96;52.57;98308.41;5040653;28;20450;-72
2022/09/21 07:45:14;;;;;;;6.93;5.80;;;;;;;15.03;53.33;98312.06;5035310;28;20190;-72
2022/09/21 07:47:39;;;;;;;6.87;6.20;;;;;;;15.25;53.58;98321.31;5031514;28;20242;-72
2022/09/21 07:50:05;;;;;;;9.80;6.67;;;;;;;15.31;52.53;98315.41;5038996;28;20190;-71
2022/09/21 07:52:30;;;;;;;8.00;5.90;;;;;;;15.43;52.36;98308.06;5047912;28;20567;-71
2022/09/21 07:54:56;;;;;;;7.27;6.00;;;;;;;15.61;52.45;98310.63;5038477;28;20605;-71
2022/09/21 08:00:05;;;;;;;14.17;6.30;;;;;;;16.06;50.94;98305.22;5038882;28;20191;-71
2022/09/21 08:02:31;;;;;;;10.70;5.93;;;;;;;16.15;50.35;98311.34;5043291;28;21074;-71
2022/09/21 08:04:56;;;;;;;7.63;5.10;;;;;;;16.37;49.94;98307.28;5029007;28;20194;-71
2022/09/21 08:07:22;;;;;;;6.50;4.77;;;;;;;16.58;49.41;98307.63;5042703;28;20218;-71
2022/09/21 08:09:49;;;;;;;6.97;5.00;;;;;;;16.87;49.21;98305.50;5046184;28;20662;-75
2022/09/21 08:12:17;;;;;;;6.37;4.63;;;;;;;17.13;48.07;98309.84;5040919;28;20637;-72
2022/09/21 08:14:43;;;;;;;9.87;4.83;;;;;;;17.32;47.79;98314.75;5048139;28;20528;-71
2022/09/21 08:17:08;;;;;;;7.57;4.40;;;;;;;17.57;47.04;98305.94;5041597;28;20772;-71
2022/09/21 08:19:35;;;;;;;6.90;4.33;;;;;;;17.85;46.38;98313.44;5040617;28;20270;-72
2022/09/21 08:22:01;;;;;;;5.03;4.13;;;;;;;18.06;46.77;98316.38;5025403;28;20607;-71
2022/09/21 08:24:26;;;;;;;4.60;3.73;;;;;;;18.23;46.11;98313.63;5045643;28;20512;-71
2022/09/21 08:26:51;;;;;;;6.00;3.33;;;;;;;18.33;45.13;98314.25;5036321;28;20179;-73
2022/09/21 08:29:17;;;;;;;6.70;3.37;;;;;;;18.60;44.49;98313.91;5040530;28;20187;-71
2022/09/21 08:31:42;;;;;;;6.20;2.87;;;;;;;18.68;44.03;98312.00;5032911;28;20237;-72
2022/09/21 08:34:08;;;;;;;4.20;3.40;;;;;;;18.86;43.95;98309.06;5047260;28;20694;-71
2022/09/21 08:36:34;;;;;;;5.60;4.13;;;;;;;18.92;43.94;98304.84;5045736;28;20195;-71
2022/09/21 08:38:59;;;;;;;5.43;3.00;;;;;;;19.01;42.39;98319.75;5032240;28;20190;-71
2022/09/21 08:41:50;;;;;;;4.00;2.57;;;;;;;19.30;42.16;98312.84;5036505;28;20714;-72
2022/09/21 08:44:20;;;;;;;3.90;2.90;;;;;;;19.55;42.19;98309.91;5040530;28;20726;-72
2022/09/21 08:46:54;;;;;;;6.17;4.17;;;;;;;19.82;41.88;98310.28;5046213;28;20430;-73
2022/09/21 08:49:23;;;;;;;5.20;3.80;;;;;;;19.89;41.68;98313.88;5044119;28;20866;-72
2022/09/21 08:52:04;;;;;;;6.03;3.93;;;;;;;20.02;41.61;98315.88;5046484;28;20446;-73
2022/09/21 08:54:56;;;;;;;6.00;3.77;;;;;;;20.32;41.42;98304.34;5026756;28;20513;-73
2022/09/21 08:57:33;;;;;;;7.23;4.10;;;;;;;20.44;40.44;98302.84;5047935;28;20425;-73
2022/09/21 09:00:06;;;;;;;8.67;4.70;;;;;;;20.61;40.25;98297.25;5037373;28;20458;-72
2022/09/21 09:02:32;;;;;;;4.73;3.30;;;;;;;20.57;39.14;98302.13;5037290;28;20441;-73
2022/09/21 09:05:24;;;;;;;10.20;3.50;;;;;;;20.67;39.30;98301.81;5038191;28;20427;-72
2022/09/21 09:08:16;;;;;;;3.97;2.10;;;;;;;20.85;39.20;98301.38;5042017;28;20796;-73
2022/09/21 09:10:50;;;;;;;8.00;4.27;;;;;;;21.07;38.64;98298.69;5024937;28;20421;-71
2022/09/21 09:13:40;;;;;;;2.40;1.23;;;;;;;21.17;37.64;98297.34;5031121;28;20936;-71
2022/09/21 09:16:22;;;;;;;1.97;1.10;;;;;;;21.45;37.08;98303.66;5016903;28;20478;-71
2022/09/21 09:18:58;;;;;;;2.07;1.13;;;;;;;21.20;35.88;98300.66;5028200;28;20430;-71
2022/09/21 09:21:36;;;;;;;3.90;1.30;;;;;;;21.19;36.81;98294.47;5020271;28;20474;-71
2022/09/21 09:24:08;;;;;;;2.07;1.13;;;;;;;21.36;36.54;98296.84;5030530;28;20863;-70
2022/09/21 09:26:52;;;;;;;1.50;1.00;;;;;;;21.53;36.85;98300.88;5033018;28;20448;-71
2022/09/21 09:29:30;;;;;;;5.20;1.30;;;;;;;21.61;36.15;98294.56;5030855;28;20489;-70
2022/09/21 09:31:57;;;;;;;2.73;1.17;;;;;;;21.61;35.62;98289.25;5031592;28;20440;-70
2022/09/21 09:34:31;;;;;;;2.60;1.20;;;;;;;21.46;35.74;98289.31;5028454;28;20431;-72
2022/09/21 09:36:58;;;;;;;3.13;1.13;;;;;;;21.64;35.87;98299.50;5042642;28;20457;-72
2022/09/21 09:39:25;;;;;;;2.67;1.30;;;;;;;21.85;36.10;98282.56;5031128;28;20492;-70
2022/09/21 09:42:24;;;;;;;2.13;1.00;;;;;;;22.08;35.51;98287.59;5037894;28;20465;-72
2022/09/21 09:45:12;;;;;;;2.27;1.10;;;;;;;22.05;34.81;98285.31;5044211;28;20422;-72
2022/09/21 09:47:53;;;;;;;2.93;1.20;;;;;;;22.46;34.98;98277.44;5041658;28;20411;-71
2022/09/21 09:50:28;;;;;;;1.97;0.97;;;;;;;22.55;33.58;98282.41;5045153;28;20437;-72
2022/09/21 09:53:12;;;;;;;3.40;1.20;;;;;;;22.78;34.36;98270.50;5042727;28;20799;-71
2022/09/21 09:55:48;;;;;;;2.80;1.30;;;;;;;22.90;33.36;98268.00;5042040;28;20425;-72
2022/09/21 09:58:22;;;;;;;3.27;1.33;;;;;;;22.97;33.92;98268.00;5039931;28;20430;-70
2022/09/21 10:00:53;;;;;;;2.93;1.03;;;;;;;22.94;33.25;98274.59;5041998;28;20473;-72
2022/09/21 10:03:23;;;;;;;3.80;1.30;;;;;;;22.95;32.76;98270.06;5042590;28;20918;-71
2022/09/21 10:05:48;;;;;;;1.40;0.90;;;;;;;23.14;32.88;98269.22;5039921;28;20513;-72
2022/09/21 10:08:42;;;;;;;2.63;1.33;;;;;;;23.14;32.28;98258.53;5035211;28;20993;-72
2022/09/21 10:11:09;;;;;;;5.50;1.60;;;;;;;23.10;32.14;98254.63;5043763;28;20214;-71
2022/09/21 10:13:39;;;;;;;3.37;1.60;;;;;;;23.30;32.63;98261.84;5039938;28;20425;-72
2022/09/21 10:16:16;;;;;;;5.23;1.50;;;;;;;23.61;32.66;98249.59;5045629;28;20448;-72
2022/09/21 10:18:46;;;;;;;4.10;1.80;;;;;;;23.85;32.64;98256.09;5035978;28;20436;-71
2022/09/21 10:21:32;;;;;;;4.53;1.43;;;;;;;24.08;32.23;98252.91;5028378;28;20875;-72
2022/09/21 10:24:03;;;;;;;4.23;2.53;;;;;;;24.37;32.34;98255.22;5041249;28;20426;-72
2022/09/21 10:26:42;;;;;;;3.60;2.20;;;;;;;24.37;31.92;98257.91;5044233;28;20963;-72
2022/09/21 10:29:20;;;;;;;6.93;2.50;;;;;;;24.09;31.54;98251.06;5039359;28;20458;-71
2022/09/21 10:32:02;;;;;;;4.87;2.17;;;;;;;24.25;31.71;98246.25;5017911;28;20462;-72
2022/09/21 10:34:30;;;;;;;3.33;1.90;;;;;;;23.69;31.61;98243.19;5046908;28;20422;-72
2022/09/21 10:36:58;;;;;;;2.40;1.83;;;;;;;23.59;32.59;98246.31;5037774;28;20522;-73
2022/09/21 10:39:31;;;;;;;2.50;1.80;;;;;;;23.70;31.87;98237.63;5022995;28;20419;-73
2022/09/21 10:41:58;;;;;;;2.73;1.80;;;;;;;23.92;31.74;98242.69;5022834;28;20984;-73
2022/09/21 10:44:49;;;;;;;2.27;1.83;;;;;;;23.91;32.09;98239.19;5027213;28;22187;-72
2022/09/21 10:47:26;;;;;;;3.57;1.77;;;;;;;24.27;31.50;98234.28;5037044;28;20441;-72
2022/09/21 10:49:54;;;;;;;5.43;1.80;;;;;;;24.42;31.41;98233.97;5036562;28;20504;-71
2022/09/21 10:52:22;;;;;;;5.00;1.60;;;;;;;24.66;31.64;98236.88;5036663;28;20478;-71
2022/09/21 10:54:50;;;;;;;3.70;1.63;;;;;;;24.70;31.19;98235.44;5039623;28;20479;-70
2022/09/21 10:57:18;;;;;;;1.60;1.30;;;;;;;24.77;31.37;98232.69;5040931;28;20429;-70
2022/09/21 10:59:43;;;;;;;2.20;1.57;;;;;;;24.73;30.61;98228.81;5027207;28;20910;-71
2022/09/21 11:02:35;;;;;;;5.80;1.40;;;;;;;24.66;29.85;98227.00;5021968;28;20481;-73
2022/09/21 11:05:27;;;;;;;5.90;1.20;;;;;;;24.58;30.13;98219.19;5018370;28;20648;-70
2022/09/21 11:07:57;;;;;;;2.90;1.40;;;;;;;24.54;29.40;98218.81;5022906;28;20911;-71
2022/09/21 11:11:13;;;;;;;3.53;1.20;;;;;;;24.44;29.88;98231.09;5023473;28;20430;-71
2022/09/21 11:13:46;;;;;;;3.70;1.20;;;;;;;24.32;29.88;98231.75;5015784;28;20928;-71
2022/09/21 11:16:27;;;;;;;3.17;1.37;;;;;;;24.10;30.60;98228.63;5022426;28;20561;-71
2022/09/21 11:19:19;;;;;;;5.63;1.00;;;;;;;23.87;30.93;98223.75;5022173;28;20437;-72
2022/09/21 11:22:11;;;;;;;1.43;1.20;;;;;;;23.88;31.14;98230.75;5032757;28;20467;-71
2022/09/21 11:24:51;;;;;;;5.73;1.10;;;;;;;23.85;29.63;98213.28;5031957;28;20504;-71
2022/09/21 11:27:34;;;;;;;4.13;1.03;;;;;;;24.02;30.08;98215.47;5025632;28;20452;-70
2022/09/21 11:30:06;;;;;;;3.50;1.40;;;;;;;24.19;31.19;98213.13;5020644;28;20464;-70
2022/09/21 11:33:09;;;;;;;9.20;1.30;;;;;;;24.44;30.88;98212.34;5038774;28;20477;-71
2022/09/21 11:35:57;;;;;;;1.70;1.10;;;;;;;24.63;30.17;98213.22;5041584;28;20421;-70
2022/09/21 11:39:13;;;;;;;1.30;1.00;;;;;;;24.75;31.18;98205.28;5035956;28;20430;-71
2022/09/21 11:41:48;;;;;;;1.30;0.90;;;;;;;24.67;29.49;98191.13;5044026;28;21049;-71
2022/09/21 11:44:20;;;;;;;1.30;0.80;;;;;;;24.77;30.31;98195.97;5050640;28;20444;-71
2022/09/21 11:46:54;;;;;;;2.80;1.30;;;;;;;24.75;30.15;98194.56;5044633;28;20509;-70
2022/09/21 11:50:10;;;;;;;2.90;1.20;;;;;;;24.83;30.44;98191.59;5044260;28;20422;-70
2022/09/21 11:52:39;;;;;;;2.07;1.30;;;;;;;24.56;31.28;98185.63;5036947;28;20441;-70
2022/09/21 11:55:15;;;;;;;3.80;1.50;;;;;;;24.26;31.14;98192.47;5036656;28;20851;-70
2022/09/21 11:57:51;;;;;;;2.03;1.23;;;;;;;24.38;30.62;98195.28;5048040;28;20452;-70